createdAt,value
2019-05-16T00:00:32.993Z,13.30
2019-05-16T00:03:04.522Z,13.15
2019-05-16T00:05:48.484Z,11.18
2019-05-16T00:08:12.675Z,12.75
2019-05-16T00:10:42.540Z,15.45
2019-05-16T00:13:13.612Z,11.50
2019-05-16T00:15:47.978Z,15.43
2019-05-16T00:18:19.996Z,15.45
2019-05-16T00:20:51.333Z,14.10
2019-05-16T00:23:22.854Z,18.02
2019-05-16T00:25:54.234Z,17.87
2019-05-16T00:28:25.786Z,16.70
2019-05-16T00:30:59.138Z,13.28
2019-05-16T00:33:30.590Z,15.05
2019-05-16T00:36:05.332Z,14.10
2019-05-16T00:38:37.861Z,15.63
2019-05-16T00:41:09.305Z,16.05
2019-05-16T00:43:40.451Z,14.87
2019-05-16T00:46:12.078Z,13.80
2019-05-16T00:48:43.741Z,14.10
2019-05-16T00:51:18.142Z,14.35
2019-05-16T00:53:49.604Z,14.43
2019-05-16T00:56:21.488Z,15.30
2019-05-16T00:58:53.708Z,17.27
2019-05-16T01:01:28.162Z,12.70
2019-05-16T01:03:59.031Z,13.30
2019-05-16T01:06:30.416Z,12.90
2019-05-16T01:09:01.933Z,13.60
2019-05-16T01:11:35.128Z,14.45
2019-05-16T01:14:08.454Z,15.47
2019-05-16T01:16:39.580Z,12.10
2019-05-16T01:19:10.818Z,11.38
2019-05-16T01:21:42.272Z,15.00
2019-05-16T01:24:13.581Z,15.03
2019-05-16T01:26:48.364Z,14.03
2019-05-16T01:29:19.869Z,14.53
2019-05-16T01:31:51.509Z,15.00
2019-05-16T01:34:22.860Z,13.22
2019-05-16T01:36:54.066Z,12.80
2019-05-16T01:39:25.429Z,12.03
2019-05-16T01:41:58.653Z,11.95
2019-05-16T01:44:29.949Z,10.30
2019-05-16T01:47:01.200Z,9.98
2019-05-16T01:49:32.664Z,10.28
2019-05-16T01:52:03.739Z,11.65
2019-05-16T01:54:35.299Z,10.50
2019-05-16T01:57:08.095Z,10.55
2019-05-16T01:59:39.712Z,12.35
2019-05-16T02:02:11.144Z,11.65
2019-05-16T02:04:42.305Z,8.63
2019-05-16T02:07:13.871Z,9.63
2019-05-16T02:09:47.549Z,10.55
2019-05-16T02:12:19.493Z,11.03
2019-05-16T02:14:50.812Z,9.57
2019-05-16T02:17:22.125Z,9.43
2019-05-16T02:19:53.126Z,8.63
2019-05-16T02:22:24.106Z,11.10
2019-05-16T02:24:55.685Z,10.25
2019-05-16T02:27:28.766Z,9.68
2019-05-16T02:30:00.153Z,7.43
2019-05-16T02:32:31.527Z,10.23
2019-05-16T02:35:03.904Z,11.20
2019-05-16T02:37:35.411Z,9.70
2019-05-16T02:40:11.655Z,9.23
2019-05-16T02:42:41.965Z,8.50
2019-05-16T02:45:14.552Z,7.87
2019-05-16T02:47:45.681Z,7.47
2019-05-16T02:50:17.750Z,9.00
2019-05-16T02:52:51.816Z,8.70
2019-05-16T02:55:22.206Z,11.87
2019-05-16T02:57:53.416Z,8.30
2019-05-16T03:00:35.349Z,8.73
2019-05-16T03:03:07.926Z,10.20
2019-05-16T03:05:41.848Z,12.17
2019-05-16T03:08:13.670Z,9.70
2019-05-16T03:10:45.482Z,11.00
2019-05-16T03:13:18.053Z,9.23
2019-05-16T03:15:51.680Z,8.53
2019-05-16T03:18:24.603Z,9.63
2019-05-16T03:21:00.563Z,12.57
2019-05-16T03:23:31.060Z,9.93
2019-05-16T03:26:03.378Z,9.00
2019-05-16T03:28:34.747Z,13.67
2019-05-16T03:31:06.409Z,10.53
2019-05-16T03:33:43.491Z,9.80
2019-05-16T03:36:14.634Z,10.37
2019-05-16T03:38:44.094Z,11.53
2019-05-16T03:41:15.028Z,11.03
2019-05-16T03:43:46.212Z,11.80
2019-05-16T03:46:17.773Z,12.40
2019-05-16T03:48:51.832Z,12.70
2019-05-16T03:51:22.247Z,11.07
2019-05-16T03:53:53.388Z,13.70
2019-05-16T03:56:24.558Z,11.63
2019-05-16T03:58:55.619Z,11.50
2019-05-16T04:01:26.924Z,11.00
2019-05-16T04:04:01.404Z,11.43
2019-05-16T04:06:31.344Z,11.30
2019-05-16T04:09:02.391Z,12.00
2019-05-16T04:11:34.080Z,13.07
2019-05-16T04:14:05.212Z,14.37
2019-05-16T04:16:36.782Z,12.07
2019-05-16T04:19:11.220Z,10.37
2019-05-16T04:21:42.210Z,13.93
2019-05-16T04:24:14.049Z,11.47
2019-05-16T04:26:45.415Z,10.70
2019-05-16T04:29:16.659Z,11.80
2019-05-16T04:31:50.890Z,11.00
2019-05-16T04:34:21.344Z,11.63
2019-05-16T04:36:52.299Z,12.30
2019-05-16T04:39:23.621Z,14.43
2019-05-16T04:41:54.863Z,12.43
2019-05-16T04:44:26.038Z,10.47
2019-05-16T04:46:57.126Z,9.53
2019-05-16T04:49:31.668Z,11.23
2019-05-16T04:52:01.091Z,11.30
2019-05-16T04:54:32.265Z,11.60
2019-05-16T04:57:03.187Z,10.77
2019-05-16T04:59:34.007Z,12.80
2019-05-16T05:02:05.178Z,13.07
2019-05-16T05:04:36.244Z,11.43
2019-05-16T05:07:10.866Z,11.57
2019-05-16T05:09:41.040Z,11.07
2019-05-16T05:12:12.434Z,9.93
2019-05-16T05:14:43.927Z,10.03
2019-05-16T05:17:15.373Z,10.03
2019-05-16T05:19:46.922Z,9.30
2019-05-16T05:22:19.910Z,12.47
2019-05-16T05:24:51.812Z,9.77
2019-05-16T05:27:22.978Z,9.93
2019-05-16T05:29:54.365Z,9.03
2019-05-16T05:32:25.772Z,11.87
2019-05-16T05:34:57.050Z,9.73
2019-05-16T05:37:29.754Z,9.67
2019-05-16T05:40:01.283Z,8.73
2019-05-16T05:42:32.465Z,10.17
2019-05-16T05:45:03.903Z,9.20
2019-05-16T05:47:35.169Z,9.27
2019-05-16T05:50:06.908Z,9.67
2019-05-16T05:52:40.820Z,11.20
2019-05-16T05:55:11.178Z,10.87
2019-05-16T05:57:42.513Z,9.90
2019-05-16T06:00:14.039Z,9.90
2019-05-16T06:02:45.290Z,10.13
2019-05-16T06:05:16.380Z,9.20
2019-05-16T06:07:47.456Z,9.83
2019-05-16T06:10:19.891Z,10.43
2019-05-16T06:12:51.177Z,10.73
2019-05-16T06:15:23.331Z,9.60
2019-05-16T06:17:54.352Z,12.13
2019-05-16T06:20:25.453Z,10.23
2019-05-16T06:22:56.367Z,9.43
2019-05-16T06:25:31.160Z,9.10
2019-05-16T06:28:00.293Z,10.93
2019-05-16T06:30:31.488Z,12.03
2019-05-16T06:33:02.653Z,14.10
2019-05-16T06:35:33.933Z,8.37
2019-05-16T06:38:05.129Z,7.03
2019-05-16T06:40:36.377Z,7.80
2019-05-16T06:43:07.566Z,8.30
2019-05-16T06:45:40.239Z,8.30
2019-05-16T06:48:11.669Z,8.47
2019-05-16T06:50:43.454Z,8.37
2019-05-16T06:53:14.553Z,6.87
2019-05-16T06:55:45.590Z,9.23
2019-05-16T06:58:17.284Z,6.03
2019-05-16T07:00:51.721Z,6.77
2019-05-16T07:03:21.655Z,7.50
2019-05-16T07:05:52.803Z,8.00
2019-05-16T07:08:24.067Z,7.67
2019-05-16T07:10:55.590Z,8.47
2019-05-16T07:13:26.850Z,8.07
2019-05-16T07:16:00.299Z,10.40
2019-05-16T07:18:31.251Z,9.80
2019-05-16T07:21:02.512Z,9.10
2019-05-16T07:23:34.637Z,9.80
2019-05-16T07:26:05.842Z,9.27
2019-05-16T07:28:37.196Z,8.87
2019-05-16T07:31:17.721Z,12.10
2019-05-16T07:33:41.673Z,10.73
2019-05-16T07:36:15.832Z,8.43
2019-05-16T07:38:47.396Z,8.63
2019-05-16T07:41:20.449Z,9.20
2019-05-16T07:43:51.527Z,9.10
2019-05-16T07:46:22.698Z,10.40
2019-05-16T07:48:53.906Z,8.27
2019-05-16T07:51:24.986Z,9.20
2019-05-16T07:53:56.174Z,9.03
2019-05-16T07:56:27.436Z,9.93
2019-05-16T07:59:00.903Z,10.83
2019-05-16T08:01:32.027Z,9.23
2019-05-16T08:04:03.329Z,10.03
2019-05-16T08:06:34.718Z,10.67
2019-05-16T08:09:07.805Z,10.43
2019-05-16T08:11:40.856Z,8.20
2019-05-16T08:14:12.175Z,7.73
2019-05-16T08:16:43.244Z,8.13
2019-05-16T08:19:14.562Z,9.43
2019-05-16T08:21:45.606Z,9.53
2019-05-16T08:24:16.784Z,9.63
2019-05-16T08:26:50.537Z,9.13
2019-05-16T08:29:21.998Z,8.00
2019-05-16T08:31:53.426Z,7.70
2019-05-16T08:34:24.895Z,8.60
2019-05-16T08:36:55.773Z,11.17
2019-05-16T08:39:26.996Z,33.83
2019-05-16T08:44:32.533Z,10.83
2019-05-16T08:47:06.162Z,10.27
2019-05-16T08:49:36.638Z,11.83
2019-05-16T08:50:09.653Z,13.90
2019-05-16T08:52:07.608Z,14.77
2019-05-16T08:54:43.851Z,11.97
2019-05-16T08:57:25.832Z,11.47
2019-05-16T08:59:45.282Z,9.90
2019-05-16T09:02:16.563Z,13.87
2019-05-16T09:04:53.120Z,10.07
2019-05-16T09:09:53.840Z,11.20
2019-05-16T09:10:32.874Z,10.13
2019-05-16T09:12:27.842Z,12.60
2019-05-16T09:15:00.950Z,14.30
2019-05-16T09:17:32.164Z,12.77
2019-05-16T09:20:03.557Z,12.10
2019-05-16T09:22:37.387Z,13.53
2019-05-16T09:25:08.285Z,11.20
2019-05-16T09:27:39.573Z,14.03
2019-05-16T09:30:11.072Z,14.37
2019-05-16T09:32:42.969Z,13.63
2019-05-16T09:35:17.213Z,16.43
2019-05-16T09:37:47.687Z,15.80
2019-05-16T09:40:19.873Z,15.83
2019-05-16T09:42:51.245Z,15.33
2019-05-16T09:45:22.899Z,16.60
2019-05-16T09:47:57.100Z,14.27
2019-05-16T09:50:26.961Z,13.23
2019-05-16T09:52:58.104Z,10.87
2019-05-16T09:55:29.187Z,12.20
2019-05-16T09:58:00.184Z,12.10
2019-05-16T10:00:32.208Z,10.57
2019-05-16T10:03:03.453Z,10.67
2019-05-16T10:05:37.181Z,11.53
2019-05-16T10:08:08.801Z,10.70
2019-05-16T10:10:39.719Z,10.30
2019-05-16T10:13:11.034Z,10.47
2019-05-16T10:15:41.879Z,11.13
2019-05-16T10:18:12.842Z,13.10
2019-05-16T10:20:44.037Z,10.77
2019-05-16T10:23:18.022Z,11.30
2019-05-16T10:25:48.327Z,18.47
2019-05-16T10:28:20.119Z,17.70
2019-05-16T10:30:51.848Z,14.93
2019-05-16T10:33:23.222Z,15.83
2019-05-16T10:35:54.377Z,15.53
2019-05-16T10:38:28.488Z,20.00
2019-05-16T10:40:58.107Z,11.77
2019-05-16T10:43:28.991Z,15.03
2019-05-16T10:46:00.047Z,12.37
2019-05-16T10:48:30.860Z,10.87
2019-05-16T10:51:02.084Z,10.53
2019-05-16T10:53:57.553Z,10.43
2019-05-16T10:56:07.730Z,11.20
2019-05-16T10:59:03.812Z,13.37
2019-05-16T11:01:24.358Z,12.13
2019-05-16T11:03:44.226Z,11.73
2019-05-16T11:06:25.414Z,12.90
2019-05-16T11:08:48.487Z,12.17
2019-05-16T11:11:20.006Z,11.63
2019-05-16T11:13:51.510Z,12.10
2019-05-16T11:16:22.690Z,13.20
2019-05-16T11:18:53.773Z,12.70
2019-05-16T11:21:26.724Z,14.37
2019-05-16T11:23:58.579Z,16.80
2019-05-16T11:26:30.301Z,16.47
2019-05-16T11:29:01.565Z,17.97
2019-05-16T11:31:33.230Z,20.40
2019-05-16T11:34:04.674Z,23.67
2019-05-16T11:36:37.600Z,21.53
2019-05-16T11:39:09.671Z,22.17
2019-05-16T11:41:41.187Z,25.57
2019-05-16T11:44:12.524Z,26.90
2019-05-16T11:46:44.064Z,22.63
2019-05-16T11:49:16.658Z,21.20
2019-05-16T11:51:48.327Z,24.73
2019-05-16T11:54:20.381Z,21.23
2019-05-16T11:56:51.526Z,19.40
2019-05-16T11:59:22.891Z,8.17
2019-05-16T12:01:54.146Z,4.67
2019-05-16T12:04:27.903Z,4.57
2019-05-16T12:06:58.627Z,4.53
2019-05-16T12:09:33.297Z,4.00
2019-05-16T12:12:04.163Z,7.07
2019-05-16T12:14:36.708Z,4.13
2019-05-16T12:17:08.203Z,4.33
2019-05-16T12:19:44.071Z,4.17
2019-05-16T12:22:11.939Z,6.53
2019-05-16T12:24:43.023Z,4.77
2019-05-16T12:27:16.761Z,5.27
2019-05-16T12:29:52.572Z,4.57
2019-05-16T12:32:19.918Z,6.97
2019-05-16T12:34:50.873Z,5.63
2019-05-16T12:37:22.032Z,5.67
2019-05-16T12:39:53.199Z,6.57
2019-05-16T12:42:24.168Z,7.03
2019-05-16T12:44:56.308Z,7.10
2019-05-16T12:47:27.515Z,6.00
2019-05-16T12:49:58.806Z,7.23
2019-05-16T12:52:29.977Z,6.53
2019-05-16T12:55:01.281Z,7.03
2019-05-16T12:57:32.686Z,8.40
2019-05-16T13:00:04.137Z,8.67
2019-05-16T13:02:37.817Z,6.37
2019-05-16T13:05:08.579Z,5.40
2019-05-16T13:07:39.826Z,4.93
2019-05-16T13:10:11.161Z,6.00
2019-05-16T13:12:42.440Z,8.47
2019-05-16T13:15:18.020Z,6.13
2019-05-16T13:17:47.630Z,7.77
2019-05-16T13:20:18.794Z,7.33
2019-05-16T13:22:49.957Z,9.13
2019-05-16T13:25:21.180Z,7.67
2019-05-16T13:27:52.294Z,8.47
2019-05-16T13:30:26.793Z,7.57
2019-05-16T13:32:57.595Z,8.03
2019-05-16T13:35:29.010Z,9.17
2019-05-16T13:38:00.266Z,6.77
2019-05-16T13:40:31.257Z,6.80
2019-05-16T13:43:02.456Z,7.53
2019-05-16T13:45:33.628Z,6.73
2019-05-16T13:48:07.823Z,7.10
2019-05-16T13:50:39.917Z,6.43
2019-05-16T13:53:10.490Z,6.43
2019-05-16T13:55:41.677Z,8.60
2019-05-16T13:58:13.249Z,7.60
2019-05-16T14:00:44.495Z,7.70
2019-05-16T14:03:17.993Z,8.83
2019-05-16T14:05:48.844Z,7.73
2019-05-16T14:08:20.460Z,7.00
2019-05-16T14:10:52.853Z,9.07
2019-05-16T14:13:24.816Z,11.07
2019-05-16T14:15:56.567Z,6.97
2019-05-16T14:18:30.491Z,6.63
2019-05-16T14:21:02.937Z,7.73
2019-05-16T14:23:38.306Z,8.07
2019-05-16T14:26:11.132Z,8.00
2019-05-16T14:28:44.536Z,9.27
2019-05-16T14:31:17.401Z,8.70
2019-05-16T14:33:49.396Z,9.23
2019-05-16T14:36:21.249Z,10.00
2019-05-16T14:38:57.524Z,10.23
2019-05-16T14:41:28.888Z,11.63
2019-05-16T14:44:01.331Z,11.93
2019-05-16T14:46:32.528Z,11.87
2019-05-16T14:49:03.918Z,11.53
2019-05-16T14:51:37.945Z,12.33
2019-05-16T14:54:07.893Z,11.57
2019-05-16T14:56:38.977Z,11.17
2019-05-16T14:59:10.336Z,9.80
2019-05-16T15:01:41.525Z,10.63
2019-05-16T15:04:12.829Z,12.83
2019-05-16T15:06:44.042Z,13.10
2019-05-16T15:09:17.396Z,10.87
2019-05-16T15:11:48.242Z,10.43
2019-05-16T15:14:19.133Z,11.10
2019-05-16T15:16:51.988Z,13.47
2019-05-16T15:19:23.247Z,8.73
2019-05-16T15:21:57.054Z,8.90
2019-05-16T15:24:29.301Z,10.63
2019-05-16T15:27:01.975Z,10.13
2019-05-16T15:29:33.479Z,11.63
2019-05-16T15:32:06.793Z,25.77
2019-05-16T15:34:38.036Z,6.93
2019-05-16T15:37:09.491Z,8.40
2019-05-16T15:39:40.447Z,8.57
2019-05-16T15:42:11.263Z,6.43
2019-05-16T15:44:42.393Z,8.73
2019-05-16T15:47:13.399Z,7.60
2019-05-16T15:49:47.564Z,8.37
2019-05-16T15:52:19.133Z,7.43
2019-05-16T15:54:51.457Z,7.57
2019-05-16T15:57:22.541Z,7.90
2019-05-16T15:59:53.807Z,6.90
2019-05-16T16:02:27.149Z,8.87
2019-05-16T16:04:57.654Z,7.17
2019-05-16T16:07:28.745Z,7.00
2019-05-16T16:09:59.604Z,7.50
2019-05-16T16:12:30.662Z,10.73
2019-05-16T16:15:07.385Z,7.20
2019-05-16T16:17:38.291Z,8.23
2019-05-16T16:20:10.537Z,7.83
2019-05-16T16:22:41.831Z,7.83
2019-05-16T16:25:13.082Z,12.50
2019-05-16T16:27:44.497Z,8.37
2019-05-16T16:30:18.409Z,8.13
2019-05-16T16:32:48.392Z,7.10
2019-05-16T16:35:21.081Z,8.30
2019-05-16T16:37:52.616Z,7.00
2019-05-16T16:40:23.629Z,7.23
2019-05-16T16:42:56.807Z,8.90
2019-05-16T16:45:27.636Z,10.23
2019-05-16T16:47:58.790Z,7.87
2019-05-16T16:50:29.739Z,7.33
2019-05-16T16:53:01.845Z,8.40
2019-05-16T16:55:32.950Z,6.80
2019-05-16T16:58:04.341Z,8.37
2019-05-16T17:00:37.833Z,6.93
2019-05-16T17:03:10.567Z,6.60
2019-05-16T17:05:41.705Z,7.93
2019-05-16T17:08:12.769Z,22.37
2019-05-16T17:10:43.878Z,10.03
2019-05-16T17:13:16.950Z,6.50
2019-05-16T17:15:47.924Z,7.47
2019-05-16T17:18:19.097Z,8.33
2019-05-16T17:20:50.199Z,8.53
2019-05-16T17:23:21.300Z,7.03
2019-05-16T17:25:52.147Z,7.57
2019-05-16T17:28:23.418Z,6.80
2019-05-16T17:30:56.601Z,7.37
2019-05-16T17:33:28.606Z,7.50
2019-05-16T17:35:59.906Z,6.27
2019-05-16T17:38:31.240Z,6.83
2019-05-16T17:41:02.422Z,5.80
2019-05-16T17:43:33.401Z,6.87
2019-05-16T17:46:07.018Z,7.07
2019-05-16T17:48:38.291Z,6.73
2019-05-16T17:51:11.074Z,9.00
2019-05-16T17:53:42.374Z,7.17
2019-05-16T17:56:13.789Z,11.57
2019-05-16T17:58:44.868Z,11.37
2019-05-16T18:01:17.152Z,8.97
2019-05-16T18:03:48.400Z,6.70
2019-05-16T18:06:19.591Z,7.30
2019-05-16T18:08:50.826Z,6.57
2019-05-16T18:11:22.156Z,10.73
2019-05-16T18:13:54.315Z,5.97
2019-05-16T18:16:25.547Z,7.50
2019-05-16T18:18:57.472Z,7.30
2019-05-16T18:21:28.448Z,6.07
2019-05-16T18:23:59.697Z,16.87
2019-05-16T18:26:31.000Z,7.83
2019-05-16T18:29:01.808Z,7.00
2019-05-16T18:31:32.923Z,7.30
2019-05-16T18:34:04.229Z,9.77
2019-05-16T18:36:35.362Z,9.23
2019-05-16T18:39:08.541Z,9.57
2019-05-16T18:41:39.611Z,15.83
2019-05-16T18:44:11.416Z,16.00
2019-05-16T18:46:42.516Z,8.50
2019-05-16T18:49:13.489Z,11.60
2019-05-16T18:51:46.567Z,8.20
2019-05-16T18:54:17.517Z,7.10
2019-05-16T18:56:48.907Z,10.30
2019-05-16T18:59:19.825Z,7.50
2019-05-16T19:01:50.672Z,9.93
2019-05-16T19:04:21.852Z,20.77
2019-05-16T19:06:52.860Z,7.87
2019-05-16T19:09:23.872Z,17.20
2019-05-16T19:11:56.588Z,8.10
2019-05-16T19:14:28.061Z,11.30
2019-05-16T19:16:59.189Z,11.93
2019-05-16T19:19:30.378Z,10.33
2019-05-16T19:22:01.336Z,9.17
2019-05-16T19:24:32.300Z,8.70
2019-05-16T19:27:03.368Z,12.20
2019-05-16T19:29:36.843Z,10.27
2019-05-16T19:32:08.716Z,9.73
2019-05-16T19:34:39.670Z,13.87
2019-05-16T19:37:10.524Z,8.80
2019-05-16T19:39:41.917Z,11.50
2019-05-16T19:42:13.638Z,10.17
2019-05-16T19:44:46.430Z,10.37
2019-05-16T19:47:17.691Z,11.47
2019-05-16T19:49:48.544Z,10.87
2019-05-16T19:52:19.931Z,11.10
2019-05-16T19:54:51.283Z,8.57
2019-05-16T19:57:22.422Z,8.47
2019-05-16T19:59:53.600Z,9.67
2019-05-16T20:02:24.633Z,9.73
2019-05-16T20:04:56.938Z,11.07
2019-05-16T20:07:28.114Z,9.57
2019-05-16T20:09:59.045Z,9.57
2019-05-16T20:12:30.293Z,13.17
2019-05-16T20:15:08.001Z,8.93
2019-05-16T20:17:36.441Z,12.67
2019-05-16T20:20:08.146Z,10.90
2019-05-16T20:22:40.325Z,16.20
2019-05-16T20:25:11.778Z,19.00
2019-05-16T20:27:42.570Z,11.43
2019-05-16T20:30:13.896Z,12.33
2019-05-16T20:32:45.096Z,10.00
2019-05-16T20:35:17.482Z,10.53
2019-05-16T20:37:48.685Z,9.90
2019-05-16T20:40:20.939Z,9.50
2019-05-16T20:42:52.050Z,10.37
2019-05-16T20:45:23.244Z,9.47
2019-05-16T20:48:07.930Z,8.83
2019-05-16T20:50:27.743Z,10.45
2019-05-16T20:52:59.134Z,9.17
2019-05-16T20:55:30.267Z,10.40
2019-05-16T20:58:01.588Z,9.27
2019-05-16T21:00:33.033Z,9.60
2019-05-16T21:03:03.971Z,10.63
2019-05-16T21:05:37.907Z,11.03
2019-05-16T21:08:08.247Z,10.63
2019-05-16T21:10:39.505Z,11.23
2019-05-16T21:13:10.818Z,10.90
2019-05-16T21:15:42.306Z,12.97
2019-05-16T21:18:13.375Z,11.13
2019-05-16T21:20:46.815Z,11.87
2019-05-16T21:23:19.563Z,12.40
2019-05-16T21:25:50.416Z,12.33
2019-05-16T21:28:21.984Z,19.12
2019-05-16T21:30:52.963Z,15.50
2019-05-16T21:33:24.426Z,13.43
2019-05-16T21:35:56.503Z,12.57
2019-05-16T21:38:27.896Z,12.78
2019-05-16T21:40:59.197Z,11.90
2019-05-16T21:43:30.273Z,11.87
2019-05-16T21:46:02.263Z,13.18
2019-05-16T21:48:33.549Z,14.03
2019-05-16T21:51:05.070Z,13.58
2019-05-16T21:53:36.757Z,12.93
2019-05-16T21:56:08.225Z,13.40
2019-05-16T21:58:39.816Z,13.28
2019-05-16T22:01:14.144Z,13.10
2019-05-16T22:03:47.177Z,13.20
2019-05-16T22:06:18.353Z,13.93
2019-05-16T22:08:49.856Z,15.10
2019-05-16T22:11:21.523Z,15.83
2019-05-16T22:13:56.901Z,19.77
2019-05-16T22:16:27.970Z,19.07
2019-05-16T22:18:59.628Z,14.70
2019-05-16T22:21:31.149Z,15.30
2019-05-16T22:24:02.671Z,18.32
2019-05-16T22:26:34.074Z,17.02
2019-05-16T22:29:06.920Z,16.03
2019-05-16T22:31:38.439Z,16.12
2019-05-16T22:34:09.581Z,15.80
2019-05-16T22:36:41.049Z,15.90
2019-05-16T22:39:12.215Z,14.87
2019-05-16T22:41:43.753Z,20.20
2019-05-16T22:44:17.609Z,15.30
2019-05-16T22:46:47.993Z,15.67
2019-05-16T22:49:19.066Z,18.20
2019-05-16T22:51:50.918Z,16.45
2019-05-16T22:54:22.495Z,16.90
2019-05-16T22:56:53.656Z,15.97
2019-05-16T22:59:27.076Z,17.87
2019-05-16T23:01:58.262Z,18.10
2019-05-16T23:04:29.585Z,18.77
2019-05-16T23:07:01.147Z,21.05
2019-05-16T23:09:32.228Z,16.67
2019-05-16T23:12:03.868Z,16.50
2019-05-16T23:14:35.146Z,23.65
2019-05-16T23:17:06.872Z,18.48
2019-05-16T23:19:38.568Z,18.82
2019-05-16T23:22:10.096Z,15.83
2019-05-16T23:24:41.448Z,22.67
2019-05-16T23:27:13.915Z,16.62
2019-05-16T23:29:47.270Z,16.02
2019-05-16T23:32:18.958Z,16.37
2019-05-16T23:34:50.421Z,19.30
2019-05-16T23:37:22.441Z,17.97
2019-05-16T23:39:53.932Z,19.10
2019-05-16T23:42:26.356Z,15.93
2019-05-16T23:44:59.817Z,16.07
2019-05-16T23:47:30.819Z,16.73
2019-05-16T23:50:02.320Z,17.20
2019-05-16T23:52:33.183Z,16.63
2019-05-16T23:55:04.479Z,18.17
2019-05-16T23:57:37.378Z,15.98
